sensor_id;sensor_type;location;lat;lon;timestamp;temperature;humidity
46976;DHT22;32724;51.094;6.996;2023-02-07T00:00:41;-1.70;99.90
46976;DHT22;32724;51.094;6.996;2023-02-07T00:03:06;-1.80;99.90
46976;DHT22;32724;51.094;6.996;2023-02-07T00:05:32;-1.70;99.90
46976;DHT22;32724;51.094;6.996;2023-02-07T00:07:57;-1.70;99.90
46976;DHT22;32724;51.094;6.996;2023-02-07T00:10:23;-1.80;99.90
46976;DHT22;32724;51.094;6.996;2023-02-07T00:12:48;-1.70;99.90
46976;DHT22;32724;51.094;6.996;2023-02-07T00:15:14;-1.50;99.90
46976;DHT22;32724;51.094;6.996;2023-02-07T00:17:40;-1.50;99.90
46976;DHT22;32724;51.094;6.996;2023-02-07T00:20:06;-1.50;99.90
46976;DHT22;32724;51.094;6.996;2023-02-07T00:22:31;-1.40;99.90
46976;DHT22;32724;51.094;6.996;2023-02-07T00:24:57;-1.30;99.90
46976;DHT22;32724;51.094;6.996;2023-02-07T00:27:22;-0.80;99.90
46976;DHT22;32724;51.094;6.996;2023-02-07T00:29:48;-0.80;99.90
46976;DHT22;32724;51.094;6.996;2023-02-07T00:32:13;-1.10;99.90
46976;DHT22;32724;51.094;6.996;2023-02-07T00:34:39;-1.30;99.90
46976;DHT22;32724;51.094;6.996;2023-02-07T00:37:04;-1.30;99.90
46976;DHT22;32724;51.094;6.996;2023-02-07T00:39:30;-1.30;99.90
46976;DHT22;32724;51.094;6.996;2023-02-07T00:41:56;-1.40;99.90
46976;DHT22;32724;51.094;6.996;2023-02-07T00:44:21;-1.50;99.90
46976;DHT22;32724;51.094;6.996;2023-02-07T00:46:47;-1.40;99.90
46976;DHT22;32724;51.094;6.996;2023-02-07T00:49:12;-1.60;99.90
46976;DHT22;32724;51.094;6.996;2023-02-07T00:51:38;-1.80;99.90
46976;DHT22;32724;51.094;6.996;2023-02-07T00:54:03;-1.80;99.90
46976;DHT22;32724;51.094;6.996;2023-02-07T00:56:29;-1.90;99.90
46976;DHT22;32724;51.094;6.996;2023-02-07T00:58:55;-2.00;99.90
46976;DHT22;32724;51.094;6.996;2023-02-07T01:01:21;-2.00;99.90
46976;DHT22;32724;51.094;6.996;2023-02-07T01:03:46;-2.00;99.90
46976;DHT22;32724;51.094;6.996;2023-02-07T01:06:12;-2.00;99.90
46976;DHT22;32724;51.094;6.996;2023-02-07T01:08:38;-2.10;99.90
46976;DHT22;32724;51.094;6.996;2023-02-07T01:11:04;-2.10;99.90
46976;DHT22;32724;51.094;6.996;2023-02-07T01:13:30;-2.20;99.90
46976;DHT22;32724;51.094;6.996;2023-02-07T01:15:56;-2.20;99.90
46976;DHT22;32724;51.094;6.996;2023-02-07T01:18:21;-2.20;99.90
46976;DHT22;32724;51.094;6.996;2023-02-07T01:20:47;-2.30;99.90
46976;DHT22;32724;51.094;6.996;2023-02-07T01:23:12;-2.30;99.90
46976;DHT22;32724;51.094;6.996;2023-02-07T01:25:39;-2.30;99.90
46976;DHT22;32724;51.094;6.996;2023-02-07T01:28:06;-1.60;99.90
46976;DHT22;32724;51.094;6.996;2023-02-07T01:30:32;-1.50;99.90
46976;DHT22;32724;51.094;6.996;2023-02-07T01:32:57;-1.70;99.90
46976;DHT22;32724;51.094;6.996;2023-02-07T01:35:23;-1.90;99.90
46976;DHT22;32724;51.094;6.996;2023-02-07T01:37:48;-2.00;99.90
46976;DHT22;32724;51.094;6.996;2023-02-07T01:40:14;-2.10;99.90
46976;DHT22;32724;51.094;6.996;2023-02-07T01:42:39;-2.20;99.90
46976;DHT22;32724;51.094;6.996;2023-02-07T01:45:11;-2.20;99.90
46976;DHT22;32724;51.094;6.996;2023-02-07T01:47:40;-2.30;99.90
46976;DHT22;32724;51.094;6.996;2023-02-07T01:50:05;-2.50;99.90
46976;DHT22;32724;51.094;6.996;2023-02-07T01:52:32;-2.50;99.90
46976;DHT22;32724;51.094;6.996;2023-02-07T01:55:06;-2.40;99.90
46976;DHT22;32724;51.094;6.996;2023-02-07T01:57:33;-2.40;99.90
46976;DHT22;32724;51.094;6.996;2023-02-07T01:59:59;-2.50;99.90
46976;DHT22;32724;51.094;6.996;2023-02-07T02:02:27;-2.50;99.90
46976;DHT22;32724;51.094;6.996;2023-02-07T02:04:53;-2.50;99.90
46976;DHT22;32724;51.094;6.996;2023-02-07T02:07:19;-2.60;99.90
46976;DHT22;32724;51.094;6.996;2023-02-07T02:09:46;-2.40;99.90
46976;DHT22;32724;51.094;6.996;2023-02-07T02:15:08;-2.40;99.90
46976;DHT22;32724;51.094;6.996;2023-02-07T02:17:54;-2.50;99.90
46976;DHT22;32724;51.094;6.996;2023-02-07T02:27:59;-2.90;99.90
46976;DHT22;32724;51.094;6.996;2023-02-07T02:30:38;-3.00;99.90
46976;DHT22;32724;51.094;6.996;2023-02-07T02:33:27;-3.10;99.90
46976;DHT22;32724;51.094;6.996;2023-02-07T02:36:07;-3.10;99.90
46976;DHT22;32724;51.094;6.996;2023-02-07T02:38:37;-2.20;99.90
46976;DHT22;32724;51.094;6.996;2023-02-07T02:41:29;-2.60;99.90
46976;DHT22;32724;51.094;6.996;2023-02-07T02:46:21;-3.00;99.90
46976;DHT22;32724;51.094;6.996;2023-02-07T02:48:49;-3.10;99.90
46976;DHT22;32724;51.094;6.996;2023-02-07T02:51:15;-3.20;99.90
46976;DHT22;32724;51.094;6.996;2023-02-07T02:53:49;-3.30;99.90
46976;DHT22;32724;51.094;6.996;2023-02-07T03:03:54;-3.20;99.90
46976;DHT22;32724;51.094;6.996;2023-02-07T03:11:26;-3.20;99.90
46976;DHT22;32724;51.094;6.996;2023-02-07T03:14:10;-3.20;99.90
46976;DHT22;32724;51.094;6.996;2023-02-07T03:19:21;-3.40;99.90
46976;DHT22;32724;51.094;6.996;2023-02-07T03:21:53;-3.40;99.90
46976;DHT22;32724;51.094;6.996;2023-02-07T03:24:27;-3.40;99.90
46976;DHT22;32724;51.094;6.996;2023-02-07T03:26:54;-3.50;99.90
46976;DHT22;32724;51.094;6.996;2023-02-07T03:29:20;-3.50;99.90
46976;DHT22;32724;51.094;6.996;2023-02-07T03:31:47;-2.90;99.90
46976;DHT22;32724;51.094;6.996;2023-02-07T03:34:15;-2.70;99.90
46976;DHT22;32724;51.094;6.996;2023-02-07T03:36:48;-3.00;99.90
46976;DHT22;32724;51.094;6.996;2023-02-07T03:39:15;-3.20;99.90
46976;DHT22;32724;51.094;6.996;2023-02-07T03:41:42;-3.40;99.90
46976;DHT22;32724;51.094;6.996;2023-02-07T03:44:09;-3.50;99.90
46976;DHT22;32724;51.094;6.996;2023-02-07T03:46:37;-3.50;99.90
46976;DHT22;32724;51.094;6.996;2023-02-07T03:49:03;-3.50;99.90
46976;DHT22;32724;51.094;6.996;2023-02-07T03:51:28;-3.50;99.90
46976;DHT22;32724;51.094;6.996;2023-02-07T03:53:54;-3.60;99.90
46976;DHT22;32724;51.094;6.996;2023-02-07T03:56:19;-3.60;99.90
46976;DHT22;32724;51.094;6.996;2023-02-07T03:58:45;-3.50;99.90
46976;DHT22;32724;51.094;6.996;2023-02-07T04:01:10;-3.40;99.90
46976;DHT22;32724;51.094;6.996;2023-02-07T04:03:42;-3.30;99.90
46976;DHT22;32724;51.094;6.996;2023-02-07T04:06:08;-3.30;99.90
46976;DHT22;32724;51.094;6.996;2023-02-07T04:08:33;-3.40;99.90
46976;DHT22;32724;51.094;6.996;2023-02-07T04:10:59;-3.40;99.90
46976;DHT22;32724;51.094;6.996;2023-02-07T04:13:25;-3.40;99.90
46976;DHT22;32724;51.094;6.996;2023-02-07T04:15:51;-3.30;99.90
46976;DHT22;32724;51.094;6.996;2023-02-07T04:18:16;-3.30;99.90
46976;DHT22;32724;51.094;6.996;2023-02-07T04:20:42;-3.20;99.90
46976;DHT22;32724;51.094;6.996;2023-02-07T04:23:07;-3.10;99.90
46976;DHT22;32724;51.094;6.996;2023-02-07T04:25:33;-3.10;99.90
46976;DHT22;32724;51.094;6.996;2023-02-07T04:27:58;-2.10;99.90
46976;DHT22;32724;51.094;6.996;2023-02-07T04:30:23;-2.40;99.90
46976;DHT22;32724;51.094;6.996;2023-02-07T04:32:49;-2.70;99.90
46976;DHT22;32724;51.094;6.996;2023-02-07T04:35:14;-2.90;99.90
46976;DHT22;32724;51.094;6.996;2023-02-07T04:37:40;-3.00;99.90
46976;DHT22;32724;51.094;6.996;2023-02-07T04:40:06;-3.20;99.90
46976;DHT22;32724;51.094;6.996;2023-02-07T04:42:31;-3.40;99.90
46976;DHT22;32724;51.094;6.996;2023-02-07T04:44:57;-3.50;99.90
46976;DHT22;32724;51.094;6.996;2023-02-07T04:47:22;-3.40;99.90
46976;DHT22;32724;51.094;6.996;2023-02-07T04:49:48;-3.40;99.90
46976;DHT22;32724;51.094;6.996;2023-02-07T04:52:13;-3.30;99.90
46976;DHT22;32724;51.094;6.996;2023-02-07T04:54:39;-3.20;99.90
46976;DHT22;32724;51.094;6.996;2023-02-07T04:57:04;-3.20;99.90
46976;DHT22;32724;51.094;6.996;2023-02-07T04:59:30;-3.10;99.90
46976;DHT22;32724;51.094;6.996;2023-02-07T05:01:55;-3.10;99.90
46976;DHT22;32724;51.094;6.996;2023-02-07T05:04:20;-3.00;99.90
46976;DHT22;32724;51.094;6.996;2023-02-07T05:06:46;-3.00;99.90
46976;DHT22;32724;51.094;6.996;2023-02-07T05:09:12;-3.00;99.90
46976;DHT22;32724;51.094;6.996;2023-02-07T05:11:37;-3.10;99.90
46976;DHT22;32724;51.094;6.996;2023-02-07T05:14:03;-3.10;99.90
46976;DHT22;32724;51.094;6.996;2023-02-07T05:16:28;-3.10;99.90
46976;DHT22;32724;51.094;6.996;2023-02-07T05:18:54;-3.00;99.90
46976;DHT22;32724;51.094;6.996;2023-02-07T05:21:19;-2.90;99.90
46976;DHT22;32724;51.094;6.996;2023-02-07T05:23:44;-2.20;99.90
46976;DHT22;32724;51.094;6.996;2023-02-07T05:26:10;-2.00;99.90
46976;DHT22;32724;51.094;6.996;2023-02-07T05:28:35;-2.20;99.90
46976;DHT22;32724;51.094;6.996;2023-02-07T05:31:01;-2.40;99.90
46976;DHT22;32724;51.094;6.996;2023-02-07T05:33:26;-2.50;99.90
46976;DHT22;32724;51.094;6.996;2023-02-07T05:35:52;-2.60;99.90
46976;DHT22;32724;51.094;6.996;2023-02-07T05:38:18;-2.60;99.90
46976;DHT22;32724;51.094;6.996;2023-02-07T05:40:44;-2.70;99.90
46976;DHT22;32724;51.094;6.996;2023-02-07T05:43:10;-2.50;99.90
46976;DHT22;32724;51.094;6.996;2023-02-07T05:45:35;-2.50;99.90
46976;DHT22;32724;51.094;6.996;2023-02-07T05:48:01;-2.60;99.90
46976;DHT22;32724;51.094;6.996;2023-02-07T05:50:27;-2.50;99.90
46976;DHT22;32724;51.094;6.996;2023-02-07T05:52:53;-2.70;99.90
46976;DHT22;32724;51.094;6.996;2023-02-07T05:55:18;-2.70;99.90
46976;DHT22;32724;51.094;6.996;2023-02-07T05:57:44;-2.70;99.90
46976;DHT22;32724;51.094;6.996;2023-02-07T06:00:13;-2.70;99.90
46976;DHT22;32724;51.094;6.996;2023-02-07T06:02:39;-2.70;99.90
46976;DHT22;32724;51.094;6.996;2023-02-07T06:05:05;-2.70;99.90
46976;DHT22;32724;51.094;6.996;2023-02-07T06:07:31;-2.60;99.90
46976;DHT22;32724;51.094;6.996;2023-02-07T06:09:56;-2.60;99.90
46976;DHT22;32724;51.094;6.996;2023-02-07T06:12:22;-2.50;99.90
46976;DHT22;32724;51.094;6.996;2023-02-07T06:14:47;-2.40;99.90
46976;DHT22;32724;51.094;6.996;2023-02-07T06:17:13;-2.30;99.90
46976;DHT22;32724;51.094;6.996;2023-02-07T06:19:38;-2.10;99.90
46976;DHT22;32724;51.094;6.996;2023-02-07T06:22:04;-2.00;99.90
46976;DHT22;32724;51.094;6.996;2023-02-07T06:24:29;-2.00;99.90
46976;DHT22;32724;51.094;6.996;2023-02-07T06:26:55;-2.00;99.90
46976;DHT22;32724;51.094;6.996;2023-02-07T06:29:20;-2.00;99.90
46976;DHT22;32724;51.094;6.996;2023-02-07T06:31:46;-2.00;99.90
46976;DHT22;32724;51.094;6.996;2023-02-07T06:34:11;-2.00;99.90
46976;DHT22;32724;51.094;6.996;2023-02-07T06:36:36;-2.00;99.90
46976;DHT22;32724;51.094;6.996;2023-02-07T06:39:02;-2.00;99.90
46976;DHT22;32724;51.094;6.996;2023-02-07T06:41:28;-2.00;99.90
46976;DHT22;32724;51.094;6.996;2023-02-07T06:43:53;-1.90;99.90
46976;DHT22;32724;51.094;6.996;2023-02-07T06:46:19;-1.90;99.90
46976;DHT22;32724;51.094;6.996;2023-02-07T06:48:44;-1.80;99.90
46976;DHT22;32724;51.094;6.996;2023-02-07T06:51:09;-1.80;99.90
46976;DHT22;32724;51.094;6.996;2023-02-07T06:53:35;-1.80;99.90
46976;DHT22;32724;51.094;6.996;2023-02-07T06:56:00;-1.80;99.90
46976;DHT22;32724;51.094;6.996;2023-02-07T06:58:26;-1.80;99.90
46976;DHT22;32724;51.094;6.996;2023-02-07T07:00:51;-1.80;99.90
46976;DHT22;32724;51.094;6.996;2023-02-07T07:03:17;-1.80;99.90
46976;DHT22;32724;51.094;6.996;2023-02-07T07:05:43;-1.80;99.90
46976;DHT22;32724;51.094;6.996;2023-02-07T07:08:09;-1.80;99.90
46976;DHT22;32724;51.094;6.996;2023-02-07T07:10:35;-1.80;99.90
46976;DHT22;32724;51.094;6.996;2023-02-07T07:13:00;-1.80;99.90
46976;DHT22;32724;51.094;6.996;2023-02-07T07:15:26;-1.90;99.90
46976;DHT22;32724;51.094;6.996;2023-02-07T07:17:51;-1.80;99.90
46976;DHT22;32724;51.094;6.996;2023-02-07T07:20:17;-2.00;99.90
46976;DHT22;32724;51.094;6.996;2023-02-07T07:22:43;-2.00;99.90
46976;DHT22;32724;51.094;6.996;2023-02-07T07:25:08;-2.00;99.90
46976;DHT22;32724;51.094;6.996;2023-02-07T07:27:34;-2.10;99.90
46976;DHT22;32724;51.094;6.996;2023-02-07T07:29:59;-2.10;99.90
46976;DHT22;32724;51.094;6.996;2023-02-07T07:32:25;-2.00;99.90
46976;DHT22;32724;51.094;6.996;2023-02-07T07:34:50;-2.00;99.90
46976;DHT22;32724;51.094;6.996;2023-02-07T07:37:16;-2.00;99.90
46976;DHT22;32724;51.094;6.996;2023-02-07T07:39:41;-1.80;99.90
46976;DHT22;32724;51.094;6.996;2023-02-07T07:42:08;-1.80;99.90
46976;DHT22;32724;51.094;6.996;2023-02-07T07:44:34;-1.80;99.90
46976;DHT22;32724;51.094;6.996;2023-02-07T07:47:00;-1.70;99.90
46976;DHT22;32724;51.094;6.996;2023-02-07T07:49:25;-1.60;99.90
46976;DHT22;32724;51.094;6.996;2023-02-07T07:51:51;-1.60;99.90
46976;DHT22;32724;51.094;6.996;2023-02-07T07:54:16;-1.50;99.90
46976;DHT22;32724;51.094;6.996;2023-02-07T07:56:42;-1.50;99.90
46976;DHT22;32724;51.094;6.996;2023-02-07T07:59:08;-1.40;99.90
46976;DHT22;32724;51.094;6.996;2023-02-07T08:01:33;-1.30;99.90
46976;DHT22;32724;51.094;6.996;2023-02-07T08:03:59;-1.30;99.90
46976;DHT22;32724;51.094;6.996;2023-02-07T08:06:24;-1.30;99.90
46976;DHT22;32724;51.094;6.996;2023-02-07T08:08:49;-1.20;99.90
46976;DHT22;32724;51.094;6.996;2023-02-07T08:11:15;-1.10;99.90
46976;DHT22;32724;51.094;6.996;2023-02-07T08:13:40;-1.00;99.90
46976;DHT22;32724;51.094;6.996;2023-02-07T08:16:06;-0.80;99.90
46976;DHT22;32724;51.094;6.996;2023-02-07T08:18:38;-0.70;99.90
46976;DHT22;32724;51.094;6.996;2023-02-07T08:21:03;-0.60;99.90
46976;DHT22;32724;51.094;6.996;2023-02-07T08:23:29;-0.50;99.90
46976;DHT22;32724;51.094;6.996;2023-02-07T08:25:54;-0.40;99.90
46976;DHT22;32724;51.094;6.996;2023-02-07T08:28:20;0.20;99.90
46976;DHT22;32724;51.094;6.996;2023-02-07T08:30:46;0.20;99.90
46976;DHT22;32724;51.094;6.996;2023-02-07T08:33:12;0.20;99.90
46976;DHT22;32724;51.094;6.996;2023-02-07T08:35:37;0.20;99.90
46976;DHT22;32724;51.094;6.996;2023-02-07T08:38:03;0.30;99.90
46976;DHT22;32724;51.094;6.996;2023-02-07T08:40:28;0.40;99.90
46976;DHT22;32724;51.094;6.996;2023-02-07T08:42:54;0.50;99.90
46976;DHT22;32724;51.094;6.996;2023-02-07T08:45:19;0.60;99.90
46976;DHT22;32724;51.094;6.996;2023-02-07T08:47:45;0.70;99.90
46976;DHT22;32724;51.094;6.996;2023-02-07T08:50:11;0.80;99.90
46976;DHT22;32724;51.094;6.996;2023-02-07T08:52:37;0.90;99.90
46976;DHT22;32724;51.094;6.996;2023-02-07T08:55:03;1.00;99.90
46976;DHT22;32724;51.094;6.996;2023-02-07T08:57:28;1.10;99.90
46976;DHT22;32724;51.094;6.996;2023-02-07T08:59:54;1.20;99.90
46976;DHT22;32724;51.094;6.996;2023-02-07T09:02:19;1.20;99.90
46976;DHT22;32724;51.094;6.996;2023-02-07T09:04:45;1.30;99.90
46976;DHT22;32724;51.094;6.996;2023-02-07T09:07:11;1.30;99.90
46976;DHT22;32724;51.094;6.996;2023-02-07T09:09:37;1.50;99.90
46976;DHT22;32724;51.094;6.996;2023-02-07T09:12:03;1.60;99.90
46976;DHT22;32724;51.094;6.996;2023-02-07T09:14:28;1.70;99.90
46976;DHT22;32724;51.094;6.996;2023-02-07T09:16:54;1.70;99.90
46976;DHT22;32724;51.094;6.996;2023-02-07T09:19:19;1.70;99.90
46976;DHT22;32724;51.094;6.996;2023-02-07T09:21:45;1.80;99.90
46976;DHT22;32724;51.094;6.996;2023-02-07T09:24:10;2.00;99.90
46976;DHT22;32724;51.094;6.996;2023-02-07T09:26:36;2.00;99.90
46976;DHT22;32724;51.094;6.996;2023-02-07T09:29:03;2.10;99.90
46976;DHT22;32724;51.094;6.996;2023-02-07T09:31:29;2.10;99.90
46976;DHT22;32724;51.094;6.996;2023-02-07T09:36:24;2.30;99.90
46976;DHT22;32724;51.094;6.996;2023-02-07T09:38:50;2.20;99.90
46976;DHT22;32724;51.094;6.996;2023-02-07T09:41:19;2.30;99.90
46976;DHT22;32724;51.094;6.996;2023-02-07T09:46:15;2.50;99.90
46976;DHT22;32724;51.094;6.996;2023-02-07T09:48:45;2.60;99.90
46976;DHT22;32724;51.094;6.996;2023-02-07T09:51:12;2.70;99.90
46976;DHT22;32724;51.094;6.996;2023-02-07T09:53:42;2.70;99.90
46976;DHT22;32724;51.094;6.996;2023-02-07T09:56:09;2.90;99.90
46976;DHT22;32724;51.094;6.996;2023-02-07T09:58:46;3.00;99.90
46976;DHT22;32724;51.094;6.996;2023-02-07T10:01:16;3.00;99.90
46976;DHT22;32724;51.094;6.996;2023-02-07T10:03:45;3.10;99.90
46976;DHT22;32724;51.094;6.996;2023-02-07T10:06:16;3.20;99.90
46976;DHT22;32724;51.094;6.996;2023-02-07T10:08:44;3.20;99.90
46976;DHT22;32724;51.094;6.996;2023-02-07T10:11:20;3.40;99.90
46976;DHT22;32724;51.094;6.996;2023-02-07T10:13:59;3.50;99.90
46976;DHT22;32724;51.094;6.996;2023-02-07T10:16:44;3.40;99.90
46976;DHT22;32724;51.094;6.996;2023-02-07T10:19:22;3.40;99.90
46976;DHT22;32724;51.094;6.996;2023-02-07T10:24:29;3.30;99.90
46976;DHT22;32724;51.094;6.996;2023-02-07T10:26:59;3.40;99.90
46976;DHT22;32724;51.094;6.996;2023-02-07T10:31:51;3.60;99.90
46976;DHT22;32724;51.094;6.996;2023-02-07T10:34:21;3.70;99.90
46976;DHT22;32724;51.094;6.996;2023-02-07T10:36:48;3.70;99.90
46976;DHT22;32724;51.094;6.996;2023-02-07T10:39:20;3.60;99.90
46976;DHT22;32724;51.094;6.996;2023-02-07T10:41:47;3.40;99.90
46976;DHT22;32724;51.094;6.996;2023-02-07T10:44:15;3.40;99.90
46976;DHT22;32724;51.094;6.996;2023-02-07T10:46:42;3.20;99.90
46976;DHT22;32724;51.094;6.996;2023-02-07T10:49:12;3.10;99.90
46976;DHT22;32724;51.094;6.996;2023-02-07T10:51:41;3.20;99.90
46976;DHT22;32724;51.094;6.996;2023-02-07T10:54:09;3.40;99.90
46976;DHT22;32724;51.094;6.996;2023-02-07T10:56:39;3.40;99.90
46976;DHT22;32724;51.094;6.996;2023-02-07T10:59:05;3.50;99.90
46976;DHT22;32724;51.094;6.996;2023-02-07T11:01:31;3.70;99.90
46976;DHT22;32724;51.094;6.996;2023-02-07T11:03:57;3.80;99.90
46976;DHT22;32724;51.094;6.996;2023-02-07T11:06:24;3.90;99.90
46976;DHT22;32724;51.094;6.996;2023-02-07T11:08:50;3.90;99.90
46976;DHT22;32724;51.094;6.996;2023-02-07T11:11:34;4.10;99.90
46976;DHT22;32724;51.094;6.996;2023-02-07T11:14:03;4.20;99.90
46976;DHT22;32724;51.094;6.996;2023-02-07T11:16:29;4.30;99.90
46976;DHT22;32724;51.094;6.996;2023-02-07T11:18:58;4.30;99.90
46976;DHT22;32724;51.094;6.996;2023-02-07T11:21:38;4.30;99.90
46976;DHT22;32724;51.094;6.996;2023-02-07T11:26:34;4.30;99.90
46976;DHT22;32724;51.094;6.996;2023-02-07T11:29:11;4.30;99.90
46976;DHT22;32724;51.094;6.996;2023-02-07T11:31:37;4.20;99.90
46976;DHT22;32724;51.094;6.996;2023-02-07T11:36:35;4.30;99.90
46976;DHT22;32724;51.094;6.996;2023-02-07T11:39:00;4.40;99.90
46976;DHT22;32724;51.094;6.996;2023-02-07T11:41:27;4.40;99.90
46976;DHT22;32724;51.094;6.996;2023-02-07T11:46:18;4.50;99.90
46976;DHT22;32724;51.094;6.996;2023-02-07T11:48:45;4.60;99.90
46976;DHT22;32724;51.094;6.996;2023-02-07T11:51:14;4.50;99.90
46976;DHT22;32724;51.094;6.996;2023-02-07T11:53:45;4.50;99.90
46976;DHT22;32724;51.094;6.996;2023-02-07T11:56:21;4.40;99.90
46976;DHT22;32724;51.094;6.996;2023-02-07T11:58:48;4.30;99.90
46976;DHT22;32724;51.094;6.996;2023-02-07T12:01:14;4.40;99.90
46976;DHT22;32724;51.094;6.996;2023-02-07T12:03:46;4.40;99.90
46976;DHT22;32724;51.094;6.996;2023-02-07T12:06:15;4.50;99.90
46976;DHT22;32724;51.094;6.996;2023-02-07T12:08:42;4.50;99.90
46976;DHT22;32724;51.094;6.996;2023-02-07T12:11:12;4.40;99.90
46976;DHT22;32724;51.094;6.996;2023-02-07T12:13:40;4.40;99.90
46976;DHT22;32724;51.094;6.996;2023-02-07T12:16:10;4.40;99.90
46976;DHT22;32724;51.094;6.996;2023-02-07T12:18:39;4.40;99.90
46976;DHT22;32724;51.094;6.996;2023-02-07T12:23:53;4.50;99.90
46976;DHT22;32724;51.094;6.996;2023-02-07T12:28:50;4.70;99.90
46976;DHT22;32724;51.094;6.996;2023-02-07T12:31:19;4.70;99.90
46976;DHT22;32724;51.094;6.996;2023-02-07T12:33:55;4.80;99.90
46976;DHT22;32724;51.094;6.996;2023-02-07T12:36:32;4.80;99.90
46976;DHT22;32724;51.094;6.996;2023-02-07T12:39:04;4.80;99.90
46976;DHT22;32724;51.094;6.996;2023-02-07T12:44:32;5.00;99.90
46976;DHT22;32724;51.094;6.996;2023-02-07T12:47:16;4.90;99.90
46976;DHT22;32724;51.094;6.996;2023-02-07T12:49:58;5.00;99.90
46976;DHT22;32724;51.094;6.996;2023-02-07T12:52:49;5.10;99.90
46976;DHT22;32724;51.094;6.996;2023-02-07T12:55:38;5.20;99.90
46976;DHT22;32724;51.094;6.996;2023-02-07T13:06:09;5.20;99.90
46976;DHT22;32724;51.094;6.996;2023-02-07T13:08:40;5.30;99.90
46976;DHT22;32724;51.094;6.996;2023-02-07T13:19:26;5.20;99.90
46976;DHT22;32724;51.094;6.996;2023-02-07T13:22:01;5.20;99.90
46976;DHT22;32724;51.094;6.996;2023-02-07T13:24:28;5.30;99.90
46976;DHT22;32724;51.094;6.996;2023-02-07T13:26:57;5.20;99.90
46976;DHT22;32724;51.094;6.996;2023-02-07T13:29:25;5.20;99.90
46976;DHT22;32724;51.094;6.996;2023-02-07T13:31:55;5.20;99.90
46976;DHT22;32724;51.094;6.996;2023-02-07T13:34:23;5.30;99.90
46976;DHT22;32724;51.094;6.996;2023-02-07T13:36:49;5.10;99.90
46976;DHT22;32724;51.094;6.996;2023-02-07T13:44:18;5.10;99.90
46976;DHT22;32724;51.094;6.996;2023-02-07T13:49:31;5.20;99.90
46976;DHT22;32724;51.094;6.996;2023-02-07T13:52:00;5.20;99.90
46976;DHT22;32724;51.094;6.996;2023-02-07T13:54:29;5.20;99.90
46976;DHT22;32724;51.094;6.996;2023-02-07T13:56:57;5.20;99.90
46976;DHT22;32724;51.094;6.996;2023-02-07T13:59:41;5.30;99.90
46976;DHT22;32724;51.094;6.996;2023-02-07T14:02:17;5.40;99.90
46976;DHT22;32724;51.094;6.996;2023-02-07T14:04:50;5.50;99.90
46976;DHT22;32724;51.094;6.996;2023-02-07T14:07:18;5.50;99.90
46976;DHT22;32724;51.094;6.996;2023-02-07T14:09:46;5.50;99.90
46976;DHT22;32724;51.094;6.996;2023-02-07T14:12:15;5.60;99.90
46976;DHT22;32724;51.094;6.996;2023-02-07T14:14:42;5.60;99.90
46976;DHT22;32724;51.094;6.996;2023-02-07T14:17:10;5.60;99.90
46976;DHT22;32724;51.094;6.996;2023-02-07T14:30:15;5.60;99.90
46976;DHT22;32724;51.094;6.996;2023-02-07T14:37:52;5.70;99.90
46976;DHT22;32724;51.094;6.996;2023-02-07T14:40:26;5.80;99.90
46976;DHT22;32724;51.094;6.996;2023-02-07T14:43:03;5.80;99.90
46976;DHT22;32724;51.094;6.996;2023-02-07T14:45:30;5.80;99.90
46976;DHT22;32724;51.094;6.996;2023-02-07T14:47:57;5.80;99.90
46976;DHT22;32724;51.094;6.996;2023-02-07T14:50:24;5.80;99.90
46976;DHT22;32724;51.094;6.996;2023-02-07T14:52:55;5.80;99.80
46976;DHT22;32724;51.094;6.996;2023-02-07T14:55:23;5.80;99.90
46976;DHT22;32724;51.094;6.996;2023-02-07T14:57:58;5.80;99.90
46976;DHT22;32724;51.094;6.996;2023-02-07T15:00:26;5.70;99.90
46976;DHT22;32724;51.094;6.996;2023-02-07T15:02:58;5.70;99.90
46976;DHT22;32724;51.094;6.996;2023-02-07T15:05:48;5.70;99.90
46976;DHT22;32724;51.094;6.996;2023-02-07T15:08:19;5.50;99.90
46976;DHT22;32724;51.094;6.996;2023-02-07T15:10:51;5.40;99.90
46976;DHT22;32724;51.094;6.996;2023-02-07T15:13:22;5.40;99.90
46976;DHT22;32724;51.094;6.996;2023-02-07T15:15:52;5.40;99.90
46976;DHT22;32724;51.094;6.996;2023-02-07T15:18:19;5.40;99.90
46976;DHT22;32724;51.094;6.996;2023-02-07T15:20:47;5.40;99.90
46976;DHT22;32724;51.094;6.996;2023-02-07T15:23:21;5.20;99.90
46976;DHT22;32724;51.094;6.996;2023-02-07T15:25:47;4.90;99.90
46976;DHT22;32724;51.094;6.996;2023-02-07T15:33:23;4.80;99.90
46976;DHT22;32724;51.094;6.996;2023-02-07T15:35:49;5.00;99.90
46976;DHT22;32724;51.094;6.996;2023-02-07T15:38:25;5.10;99.90
46976;DHT22;32724;51.094;6.996;2023-02-07T15:40:52;5.20;99.70
46976;DHT22;32724;51.094;6.996;2023-02-07T15:43:25;5.30;99.90
46976;DHT22;32724;51.094;6.996;2023-02-07T15:46:05;5.20;99.90
46976;DHT22;32724;51.094;6.996;2023-02-07T15:48:31;5.20;99.20
46976;DHT22;32724;51.094;6.996;2023-02-07T15:50:57;5.20;99.30
46976;DHT22;32724;51.094;6.996;2023-02-07T15:53:24;5.10;99.80
46976;DHT22;32724;51.094;6.996;2023-02-07T15:55:51;5.10;98.60
46976;DHT22;32724;51.094;6.996;2023-02-07T15:58:21;5.10;99.10
46976;DHT22;32724;51.094;6.996;2023-02-07T16:00:49;5.00;99.30
46976;DHT22;32724;51.094;6.996;2023-02-07T16:03:17;4.90;99.70
46976;DHT22;32724;51.094;6.996;2023-02-07T16:05:44;4.80;99.90
46976;DHT22;32724;51.094;6.996;2023-02-07T16:08:30;4.70;99.70
46976;DHT22;32724;51.094;6.996;2023-02-07T16:13:42;4.60;99.90
46976;DHT22;32724;51.094;6.996;2023-02-07T16:16:14;4.50;99.90
46976;DHT22;32724;51.094;6.996;2023-02-07T16:18:42;4.30;99.90
46976;DHT22;32724;51.094;6.996;2023-02-07T16:21:13;4.20;99.90
46976;DHT22;32724;51.094;6.996;2023-02-07T16:23:40;4.00;99.90
46976;DHT22;32724;51.094;6.996;2023-02-07T16:26:06;3.90;99.90
46976;DHT22;32724;51.094;6.996;2023-02-07T16:28:32;3.70;99.90
46976;DHT22;32724;51.094;6.996;2023-02-07T16:30:57;3.70;99.90
46976;DHT22;32724;51.094;6.996;2023-02-07T16:33:23;3.50;99.90
46976;DHT22;32724;51.094;6.996;2023-02-07T16:35:50;3.40;99.90
46976;DHT22;32724;51.094;6.996;2023-02-07T16:38:15;3.10;99.90
46976;DHT22;32724;51.094;6.996;2023-02-07T16:40:41;3.10;99.90
46976;DHT22;32724;51.094;6.996;2023-02-07T16:43:06;3.00;99.90
46976;DHT22;32724;51.094;6.996;2023-02-07T16:45:32;2.90;99.90
46976;DHT22;32724;51.094;6.996;2023-02-07T16:47:58;2.90;99.90
46976;DHT22;32724;51.094;6.996;2023-02-07T16:50:24;2.90;99.90
46976;DHT22;32724;51.094;6.996;2023-02-07T16:52:51;2.90;99.90
46976;DHT22;32724;51.094;6.996;2023-02-07T16:55:18;2.70;99.90
46976;DHT22;32724;51.094;6.996;2023-02-07T16:57:44;2.50;99.90
46976;DHT22;32724;51.094;6.996;2023-02-07T17:00:14;2.30;99.90
46976;DHT22;32724;51.094;6.996;2023-02-07T17:02:40;2.20;99.90
46976;DHT22;32724;51.094;6.996;2023-02-07T17:05:05;2.00;99.90
46976;DHT22;32724;51.094;6.996;2023-02-07T17:07:31;1.80;99.90
46976;DHT22;32724;51.094;6.996;2023-02-07T17:09:56;1.70;99.90
46976;DHT22;32724;51.094;6.996;2023-02-07T17:12:22;1.60;99.90
46976;DHT22;32724;51.094;6.996;2023-02-07T17:14:47;1.50;99.90
46976;DHT22;32724;51.094;6.996;2023-02-07T17:17:13;1.40;99.90
46976;DHT22;32724;51.094;6.996;2023-02-07T17:19:38;1.30;99.90
46976;DHT22;32724;51.094;6.996;2023-02-07T17:22:04;1.20;99.90